sensor_id;sensor_type;location;lat;lon;timestamp;P1;durP1;ratioP1;P2;durP2;ratioP2
2674;SDS011;1347;42.122;24.746;2024-02-23T00:01:54;29.33;;;20.70;;
2674;SDS011;1347;42.122;24.746;2024-02-23T00:04:21;28.47;;;21.20;;
2674;SDS011;1347;42.122;24.746;2024-02-23T00:06:48;33.77;;;23.03;;
2674;SDS011;1347;42.122;24.746;2024-02-23T00:09:15;33.57;;;21.93;;
2674;SDS011;1347;42.122;24.746;2024-02-23T00:11:42;42.67;;;26.07;;
2674;SDS011;1347;42.122;24.746;2024-02-23T00:14:10;46.07;;;26.40;;
2674;SDS011;1347;42.122;24.746;2024-02-23T00:16:39;40.27;;;23.67;;
2674;SDS011;1347;42.122;24.746;2024-02-23T00:19:07;34.77;;;22.87;;
2674;SDS011;1347;42.122;24.746;2024-02-23T00:21:34;35.70;;;23.63;;
2674;SDS011;1347;42.122;24.746;2024-02-23T00:24:01;36.47;;;22.97;;
2674;SDS011;1347;42.122;24.746;2024-02-23T00:26:28;36.93;;;23.37;;
2674;SDS011;1347;42.122;24.746;2024-02-23T00:28:55;31.13;;;20.93;;
2674;SDS011;1347;42.122;24.746;2024-02-23T00:31:22;31.13;;;20.57;;
2674;SDS011;1347;42.122;24.746;2024-02-23T00:33:50;30.53;;;20.83;;
2674;SDS011;1347;42.122;24.746;2024-02-23T00:36:17;30.73;;;20.43;;
2674;SDS011;1347;42.122;24.746;2024-02-23T00:38:44;28.50;;;21.57;;
2674;SDS011;1347;42.122;24.746;2024-02-23T00:41:11;31.03;;;21.27;;
2674;SDS011;1347;42.122;24.746;2024-02-23T00:43:38;25.83;;;21.30;;
2674;SDS011;1347;42.122;24.746;2024-02-23T00:46:05;32.03;;;21.90;;
2674;SDS011;1347;42.122;24.746;2024-02-23T00:48:33;29.27;;;22.00;;
2674;SDS011;1347;42.122;24.746;2024-02-23T00:51:01;38.30;;;22.30;;
2674;SDS011;1347;42.122;24.746;2024-02-23T00:53:30;29.27;;;22.23;;
2674;SDS011;1347;42.122;24.746;2024-02-23T00:55:57;39.03;;;23.13;;
2674;SDS011;1347;42.122;24.746;2024-02-23T00:58:24;35.03;;;21.70;;
2674;SDS011;1347;42.122;24.746;2024-02-23T01:00:51;29.03;;;21.53;;
2674;SDS011;1347;42.122;24.746;2024-02-23T01:03:18;32.30;;;22.20;;
2674;SDS011;1347;42.122;24.746;2024-02-23T01:05:44;35.93;;;22.60;;
2674;SDS011;1347;42.122;24.746;2024-02-23T01:08:13;30.60;;;22.37;;
2674;SDS011;1347;42.122;24.746;2024-02-23T01:10:40;34.87;;;23.07;;
2674;SDS011;1347;42.122;24.746;2024-02-23T01:13:06;35.03;;;24.03;;
2674;SDS011;1347;42.122;24.746;2024-02-23T01:15:33;31.00;;;23.13;;
2674;SDS011;1347;42.122;24.746;2024-02-23T01:18:00;28.07;;;19.80;;
2674;SDS011;1347;42.122;24.746;2024-02-23T01:20:27;33.90;;;23.73;;
2674;SDS011;1347;42.122;24.746;2024-02-23T01:22:54;31.50;;;22.10;;
2674;SDS011;1347;42.122;24.746;2024-02-23T01:25:22;30.17;;;22.10;;
2674;SDS011;1347;42.122;24.746;2024-02-23T01:27:49;26.70;;;21.47;;
2674;SDS011;1347;42.122;24.746;2024-02-23T01:30:16;34.13;;;23.73;;
2674;SDS011;1347;42.122;24.746;2024-02-23T01:32:44;31.00;;;20.97;;
2674;SDS011;1347;42.122;24.746;2024-02-23T01:35:10;30.67;;;22.07;;
2674;SDS011;1347;42.122;24.746;2024-02-23T01:37:37;35.30;;;24.33;;
2674;SDS011;1347;42.122;24.746;2024-02-23T01:40:05;27.27;;;21.40;;
2674;SDS011;1347;42.122;24.746;2024-02-23T01:42:34;31.20;;;22.80;;
2674;SDS011;1347;42.122;24.746;2024-02-23T01:45:00;27.93;;;21.63;;
2674;SDS011;1347;42.122;24.746;2024-02-23T01:47:28;30.97;;;24.70;;
2674;SDS011;1347;42.122;24.746;2024-02-23T01:49:56;32.60;;;24.23;;
2674;SDS011;1347;42.122;24.746;2024-02-23T01:52:25;31.23;;;22.73;;
2674;SDS011;1347;42.122;24.746;2024-02-23T01:54:52;34.97;;;24.87;;
2674;SDS011;1347;42.122;24.746;2024-02-23T01:57:21;29.60;;;21.90;;
2674;SDS011;1347;42.122;24.746;2024-02-23T01:59:50;30.17;;;22.50;;
2674;SDS011;1347;42.122;24.746;2024-02-23T02:02:18;30.03;;;23.27;;
2674;SDS011;1347;42.122;24.746;2024-02-23T02:04:45;28.57;;;22.67;;
2674;SDS011;1347;42.122;24.746;2024-02-23T02:07:12;30.17;;;23.07;;
2674;SDS011;1347;42.122;24.746;2024-02-23T02:09:39;28.77;;;20.70;;
2674;SDS011;1347;42.122;24.746;2024-02-23T02:12:06;34.50;;;24.30;;
2674;SDS011;1347;42.122;24.746;2024-02-23T02:14:32;30.80;;;24.27;;
2674;SDS011;1347;42.122;24.746;2024-02-23T02:17:03;30.77;;;23.40;;
2674;SDS011;1347;42.122;24.746;2024-02-23T02:19:31;33.80;;;24.60;;
2674;SDS011;1347;42.122;24.746;2024-02-23T02:21:57;29.40;;;23.03;;
2674;SDS011;1347;42.122;24.746;2024-02-23T02:24:27;31.07;;;24.30;;
2674;SDS011;1347;42.122;24.746;2024-02-23T02:26:54;30.63;;;23.43;;
2674;SDS011;1347;42.122;24.746;2024-02-23T02:29:20;33.70;;;23.33;;
2674;SDS011;1347;42.122;24.746;2024-02-23T02:31:47;33.63;;;23.13;;
2674;SDS011;1347;42.122;24.746;2024-02-23T02:34:15;36.40;;;24.80;;
2674;SDS011;1347;42.122;24.746;2024-02-23T02:36:42;39.00;;;26.17;;
2674;SDS011;1347;42.122;24.746;2024-02-23T02:39:09;34.43;;;25.30;;
2674;SDS011;1347;42.122;24.746;2024-02-23T02:41:36;33.47;;;24.90;;
2674;SDS011;1347;42.122;24.746;2024-02-23T02:44:03;35.63;;;25.00;;
2674;SDS011;1347;42.122;24.746;2024-02-23T02:46:30;37.33;;;23.63;;
2674;SDS011;1347;42.122;24.746;2024-02-23T02:48:57;36.07;;;24.87;;
2674;SDS011;1347;42.122;24.746;2024-02-23T02:51:25;32.17;;;24.63;;
2674;SDS011;1347;42.122;24.746;2024-02-23T02:53:52;24.87;;;21.40;;
2674;SDS011;1347;42.122;24.746;2024-02-23T02:56:18;28.60;;;22.47;;
2674;SDS011;1347;42.122;24.746;2024-02-23T02:58:45;30.03;;;22.50;;
2674;SDS011;1347;42.122;24.746;2024-02-23T03:01:12;27.40;;;22.40;;
2674;SDS011;1347;42.122;24.746;2024-02-23T03:03:39;30.13;;;23.30;;
2674;SDS011;1347;42.122;24.746;2024-02-23T03:06:06;27.63;;;21.03;;
2674;SDS011;1347;42.122;24.746;2024-02-23T03:08:34;25.93;;;20.27;;
2674;SDS011;1347;42.122;24.746;2024-02-23T03:11:01;28.07;;;20.90;;
2674;SDS011;1347;42.122;24.746;2024-02-23T03:13:28;27.77;;;20.33;;
2674;SDS011;1347;42.122;24.746;2024-02-23T03:15:56;31.30;;;21.97;;
2674;SDS011;1347;42.122;24.746;2024-02-23T03:18:23;31.17;;;22.37;;
2674;SDS011;1347;42.122;24.746;2024-02-23T03:20:52;35.47;;;21.90;;
2674;SDS011;1347;42.122;24.746;2024-02-23T03:23:20;31.43;;;21.47;;
2674;SDS011;1347;42.122;24.746;2024-02-23T03:25:48;33.27;;;22.37;;
2674;SDS011;1347;42.122;24.746;2024-02-23T03:28:15;35.20;;;22.60;;
2674;SDS011;1347;42.122;24.746;2024-02-23T03:30:42;33.67;;;22.80;;
2674;SDS011;1347;42.122;24.746;2024-02-23T03:33:09;32.93;;;22.10;;
2674;SDS011;1347;42.122;24.746;2024-02-23T03:35:35;32.10;;;22.03;;
2674;SDS011;1347;42.122;24.746;2024-02-23T03:38:02;33.50;;;21.80;;
2674;SDS011;1347;42.122;24.746;2024-02-23T03:40:29;28.57;;;20.60;;
2674;SDS011;1347;42.122;24.746;2024-02-23T03:42:57;32.43;;;21.83;;
2674;SDS011;1347;42.122;24.746;2024-02-23T03:45:24;29.00;;;21.03;;
2674;SDS011;1347;42.122;24.746;2024-02-23T03:47:51;33.80;;;20.70;;
2674;SDS011;1347;42.122;24.746;2024-02-23T03:50:18;25.40;;;19.77;;
2674;SDS011;1347;42.122;24.746;2024-02-23T03:52:45;28.87;;;20.17;;
2674;SDS011;1347;42.122;24.746;2024-02-23T03:55:12;28.00;;;20.27;;
2674;SDS011;1347;42.122;24.746;2024-02-23T03:57:39;33.00;;;22.80;;
2674;SDS011;1347;42.122;24.746;2024-02-23T04:00:07;37.53;;;25.40;;
2674;SDS011;1347;42.122;24.746;2024-02-23T04:02:35;39.13;;;24.87;;
2674;SDS011;1347;42.122;24.746;2024-02-23T04:05:02;32.63;;;25.20;;
2674;SDS011;1347;42.122;24.746;2024-02-23T04:07:29;35.13;;;26.90;;
2674;SDS011;1347;42.122;24.746;2024-02-23T04:09:56;35.90;;;25.10;;
2674;SDS011;1347;42.122;24.746;2024-02-23T04:12:23;33.37;;;23.17;;
2674;SDS011;1347;42.122;24.746;2024-02-23T04:14:50;37.27;;;25.20;;
2674;SDS011;1347;42.122;24.746;2024-02-23T04:17:19;45.50;;;24.00;;
2674;SDS011;1347;42.122;24.746;2024-02-23T04:19:46;45.07;;;25.37;;
2674;SDS011;1347;42.122;24.746;2024-02-23T04:22:13;34.90;;;24.63;;
2674;SDS011;1347;42.122;24.746;2024-02-23T04:24:40;38.73;;;25.37;;
2674;SDS011;1347;42.122;24.746;2024-02-23T04:27:08;37.80;;;25.80;;
2674;SDS011;1347;42.122;24.746;2024-02-23T04:29:35;39.63;;;25.30;;
2674;SDS011;1347;42.122;24.746;2024-02-23T04:32:02;41.63;;;27.80;;
2674;SDS011;1347;42.122;24.746;2024-02-23T04:34:31;33.80;;;25.83;;
2674;SDS011;1347;42.122;24.746;2024-02-23T04:36:57;43.87;;;27.90;;
2674;SDS011;1347;42.122;24.746;2024-02-23T04:39:24;38.33;;;25.63;;
2674;SDS011;1347;42.122;24.746;2024-02-23T04:41:51;39.43;;;28.10;;
2674;SDS011;1347;42.122;24.746;2024-02-23T04:44:19;43.87;;;30.80;;
2674;SDS011;1347;42.122;24.746;2024-02-23T04:46:45;39.47;;;27.90;;
2674;SDS011;1347;42.122;24.746;2024-02-23T04:49:12;46.63;;;29.77;;
2674;SDS011;1347;42.122;24.746;2024-02-23T04:51:40;42.67;;;28.37;;
2674;SDS011;1347;42.122;24.746;2024-02-23T04:54:07;45.43;;;29.17;;
2674;SDS011;1347;42.122;24.746;2024-02-23T04:56:34;40.67;;;30.77;;
2674;SDS011;1347;42.122;24.746;2024-02-23T04:59:01;44.17;;;30.47;;
2674;SDS011;1347;42.122;24.746;2024-02-23T05:01:28;44.27;;;29.87;;
2674;SDS011;1347;42.122;24.746;2024-02-23T05:03:55;39.67;;;29.77;;
2674;SDS011;1347;42.122;24.746;2024-02-23T05:06:22;40.53;;;29.80;;
2674;SDS011;1347;42.122;24.746;2024-02-23T05:08:50;39.93;;;30.23;;
2674;SDS011;1347;42.122;24.746;2024-02-23T05:11:17;44.87;;;32.83;;
2674;SDS011;1347;42.122;24.746;2024-02-23T05:13:44;40.60;;;31.30;;
2674;SDS011;1347;42.122;24.746;2024-02-23T05:16:11;44.20;;;32.27;;
2674;SDS011;1347;42.122;24.746;2024-02-23T05:18:39;43.50;;;32.97;;
2674;SDS011;1347;42.122;24.746;2024-02-23T05:21:06;36.60;;;27.33;;
2674;SDS011;1347;42.122;24.746;2024-02-23T05:23:33;47.93;;;34.03;;
2674;SDS011;1347;42.122;24.746;2024-02-23T05:26:01;44.37;;;31.70;;
2674;SDS011;1347;42.122;24.746;2024-02-23T05:28:28;42.80;;;30.40;;
2674;SDS011;1347;42.122;24.746;2024-02-23T05:30:55;42.40;;;30.60;;
2674;SDS011;1347;42.122;24.746;2024-02-23T05:33:22;44.80;;;33.07;;
2674;SDS011;1347;42.122;24.746;2024-02-23T05:35:50;42.27;;;30.63;;
2674;SDS011;1347;42.122;24.746;2024-02-23T05:38:17;52.50;;;34.00;;
2674;SDS011;1347;42.122;24.746;2024-02-23T05:40:44;41.93;;;30.03;;
2674;SDS011;1347;42.122;24.746;2024-02-23T05:43:12;47.20;;;32.00;;
2674;SDS011;1347;42.122;24.746;2024-02-23T05:45:39;48.00;;;30.60;;
2674;SDS011;1347;42.122;24.746;2024-02-23T05:48:06;47.00;;;32.37;;
2674;SDS011;1347;42.122;24.746;2024-02-23T05:50:33;39.80;;;29.50;;
2674;SDS011;1347;42.122;24.746;2024-02-23T05:53:00;38.50;;;29.27;;
2674;SDS011;1347;42.122;24.746;2024-02-23T05:55:29;40.00;;;29.30;;
2674;SDS011;1347;42.122;24.746;2024-02-23T05:57:56;46.97;;;32.80;;
2674;SDS011;1347;42.122;24.746;2024-02-23T06:00:24;46.53;;;29.13;;
2674;SDS011;1347;42.122;24.746;2024-02-23T06:02:51;52.20;;;31.87;;
2674;SDS011;1347;42.122;24.746;2024-02-23T06:05:18;52.70;;;33.13;;
2674;SDS011;1347;42.122;24.746;2024-02-23T06:07:45;41.87;;;30.33;;
2674;SDS011;1347;42.122;24.746;2024-02-23T06:10:12;43.10;;;30.50;;
2674;SDS011;1347;42.122;24.746;2024-02-23T06:12:39;41.47;;;29.47;;
2674;SDS011;1347;42.122;24.746;2024-02-23T06:15:06;36.40;;;28.27;;
2674;SDS011;1347;42.122;24.746;2024-02-23T06:17:35;41.57;;;27.87;;
2674;SDS011;1347;42.122;24.746;2024-02-23T06:20:05;37.70;;;27.30;;
2674;SDS011;1347;42.122;24.746;2024-02-23T06:22:33;37.60;;;27.10;;
2674;SDS011;1347;42.122;24.746;2024-02-23T06:25:00;34.23;;;24.70;;
2674;SDS011;1347;42.122;24.746;2024-02-23T06:27:26;34.43;;;27.07;;
2674;SDS011;1347;42.122;24.746;2024-02-23T06:29:53;33.47;;;25.90;;
2674;SDS011;1347;42.122;24.746;2024-02-23T06:32:20;34.63;;;23.80;;
2674;SDS011;1347;42.122;24.746;2024-02-23T06:34:49;37.80;;;25.90;;
2674;SDS011;1347;42.122;24.746;2024-02-23T06:37:15;35.73;;;23.70;;
2674;SDS011;1347;42.122;24.746;2024-02-23T06:39:42;31.30;;;22.87;;
2674;SDS011;1347;42.122;24.746;2024-02-23T06:42:11;28.20;;;19.93;;
2674;SDS011;1347;42.122;24.746;2024-02-23T06:44:37;27.03;;;20.80;;
2674;SDS011;1347;42.122;24.746;2024-02-23T06:47:04;26.20;;;21.70;;
2674;SDS011;1347;42.122;24.746;2024-02-23T06:49:32;28.63;;;22.50;;
2674;SDS011;1347;42.122;24.746;2024-02-23T06:52:00;33.47;;;21.37;;
2674;SDS011;1347;42.122;24.746;2024-02-23T06:54:27;31.83;;;22.87;;
2674;SDS011;1347;42.122;24.746;2024-02-23T06:56:54;31.23;;;24.17;;
2674;SDS011;1347;42.122;24.746;2024-02-23T06:59:20;29.17;;;22.13;;
2674;SDS011;1347;42.122;24.746;2024-02-23T07:01:49;36.20;;;24.30;;
2674;SDS011;1347;42.122;24.746;2024-02-23T07:04:16;24.63;;;20.10;;
2674;SDS011;1347;42.122;24.746;2024-02-23T07:06:44;32.27;;;21.30;;
2674;SDS011;1347;42.122;24.746;2024-02-23T07:09:13;25.57;;;20.70;;
2674;SDS011;1347;42.122;24.746;2024-02-23T07:11:40;32.77;;;22.83;;
2674;SDS011;1347;42.122;24.746;2024-02-23T07:14:08;27.53;;;19.73;;
2674;SDS011;1347;42.122;24.746;2024-02-23T07:16:37;25.73;;;21.47;;
2674;SDS011;1347;42.122;24.746;2024-02-23T07:19:04;24.20;;;19.77;;
2674;SDS011;1347;42.122;24.746;2024-02-23T07:21:31;23.60;;;19.50;;
2674;SDS011;1347;42.122;24.746;2024-02-23T07:23:58;25.67;;;21.43;;
2674;SDS011;1347;42.122;24.746;2024-02-23T07:26:27;30.30;;;20.43;;
2674;SDS011;1347;42.122;24.746;2024-02-23T07:28:54;25.23;;;19.70;;
2674;SDS011;1347;42.122;24.746;2024-02-23T07:31:21;25.70;;;20.83;;
2674;SDS011;1347;42.122;24.746;2024-02-23T07:33:48;22.77;;;19.70;;
2674;SDS011;1347;42.122;24.746;2024-02-23T07:36:16;27.07;;;19.77;;
2674;SDS011;1347;42.122;24.746;2024-02-23T07:38:43;24.90;;;20.80;;
2674;SDS011;1347;42.122;24.746;2024-02-23T07:41:10;22.53;;;20.23;;
2674;SDS011;1347;42.122;24.746;2024-02-23T07:43:39;21.27;;;19.07;;
2674;SDS011;1347;42.122;24.746;2024-02-23T07:46:07;24.07;;;20.87;;
2674;SDS011;1347;42.122;24.746;2024-02-23T07:48:34;26.03;;;23.13;;
2674;SDS011;1347;42.122;24.746;2024-02-23T07:51:01;27.77;;;22.43;;
2674;SDS011;1347;42.122;24.746;2024-02-23T07:53:28;21.90;;;19.70;;
2674;SDS011;1347;42.122;24.746;2024-02-23T07:55:55;29.13;;;20.07;;
2674;SDS011;1347;42.122;24.746;2024-02-23T07:58:24;24.60;;;21.97;;
2674;SDS011;1347;42.122;24.746;2024-02-23T08:00:53;27.00;;;20.63;;
2674;SDS011;1347;42.122;24.746;2024-02-23T08:03:20;25.37;;;22.70;;
2674;SDS011;1347;42.122;24.746;2024-02-23T08:05:47;21.43;;;18.37;;
2674;SDS011;1347;42.122;24.746;2024-02-23T08:08:13;24.00;;;21.70;;
2674;SDS011;1347;42.122;24.746;2024-02-23T08:10:40;21.57;;;19.33;;
2674;SDS011;1347;42.122;24.746;2024-02-23T08:13:07;24.23;;;21.73;;
2674;SDS011;1347;42.122;24.746;2024-02-23T08:15:35;18.97;;;17.07;;
2674;SDS011;1347;42.122;24.746;2024-02-23T08:18:04;19.97;;;17.73;;
2674;SDS011;1347;42.122;24.746;2024-02-23T08:20:31;19.83;;;17.73;;
2674;SDS011;1347;42.122;24.746;2024-02-23T08:22:58;23.17;;;17.40;;
2674;SDS011;1347;42.122;24.746;2024-02-23T08:25:25;20.23;;;18.27;;
2674;SDS011;1347;42.122;24.746;2024-02-23T08:27:54;21.40;;;19.20;;
2674;SDS011;1347;42.122;24.746;2024-02-23T08:30:21;20.63;;;17.80;;
2674;SDS011;1347;42.122;24.746;2024-02-23T08:32:49;23.10;;;18.20;;
2674;SDS011;1347;42.122;24.746;2024-02-23T08:35:17;20.27;;;18.20;;
2674;SDS011;1347;42.122;24.746;2024-02-23T08:37:44;19.70;;;17.17;;
2674;SDS011;1347;42.122;24.746;2024-02-23T08:40:11;18.47;;;16.77;;
2674;SDS011;1347;42.122;24.746;2024-02-23T08:42:38;18.97;;;17.27;;
2674;SDS011;1347;42.122;24.746;2024-02-23T08:45:06;18.43;;;15.90;;
2674;SDS011;1347;42.122;24.746;2024-02-23T08:47:34;21.17;;;17.30;;
2674;SDS011;1347;42.122;24.746;2024-02-23T08:50:02;18.80;;;16.90;;
2674;SDS011;1347;42.122;24.746;2024-02-23T08:52:31;20.10;;;18.00;;
2674;SDS011;1347;42.122;24.746;2024-02-23T08:54:58;19.27;;;17.30;;
2674;SDS011;1347;42.122;24.746;2024-02-23T08:57:26;20.30;;;18.30;;
2674;SDS011;1347;42.122;24.746;2024-02-23T08:59:53;22.13;;;19.93;;
2674;SDS011;1347;42.122;24.746;2024-02-23T09:02:22;20.07;;;17.97;;
2674;SDS011;1347;42.122;24.746;2024-02-23T09:04:49;21.50;;;17.83;;
2674;SDS011;1347;42.122;24.746;2024-02-23T09:07:16;20.20;;;18.20;;
2674;SDS011;1347;42.122;24.746;2024-02-23T09:09:46;17.93;;;16.30;;
2674;SDS011;1347;42.122;24.746;2024-02-23T09:12:13;20.07;;;17.87;;
2674;SDS011;1347;42.122;24.746;2024-02-23T09:14:41;18.87;;;17.20;;
2674;SDS011;1347;42.122;24.746;2024-02-23T09:17:08;20.97;;;19.00;;
2674;SDS011;1347;42.122;24.746;2024-02-23T09:19:36;20.60;;;18.70;;
2674;SDS011;1347;42.122;24.746;2024-02-23T09:22:03;20.83;;;18.93;;
2674;SDS011;1347;42.122;24.746;2024-02-23T09:24:30;19.23;;;17.27;;
2674;SDS011;1347;42.122;24.746;2024-02-23T09:27:02;18.27;;;16.33;;
2674;SDS011;1347;42.122;24.746;2024-02-23T09:29:29;18.63;;;16.70;;
2674;SDS011;1347;42.122;24.746;2024-02-23T09:31:56;16.97;;;15.47;;
2674;SDS011;1347;42.122;24.746;2024-02-23T09:34:23;23.37;;;17.60;;
2674;SDS011;1347;42.122;24.746;2024-02-23T09:36:51;18.20;;;16.43;;
2674;SDS011;1347;42.122;24.746;2024-02-23T09:39:18;21.50;;;19.20;;
2674;SDS011;1347;42.122;24.746;2024-02-23T09:41:47;21.23;;;19.27;;
2674;SDS011;1347;42.122;24.746;2024-02-23T09:44:18;21.10;;;18.93;;
2674;SDS011;1347;42.122;24.746;2024-02-23T09:46:47;21.73;;;19.63;;
2674;SDS011;1347;42.122;24.746;2024-02-23T09:49:14;22.30;;;20.27;;
2674;SDS011;1347;42.122;24.746;2024-02-23T09:51:42;20.43;;;18.53;;
2674;SDS011;1347;42.122;24.746;2024-02-23T09:54:10;22.03;;;19.80;;
2674;SDS011;1347;42.122;24.746;2024-02-23T09:56:37;21.87;;;19.67;;
2674;SDS011;1347;42.122;24.746;2024-02-23T09:59:05;23.23;;;21.00;;
2674;SDS011;1347;42.122;24.746;2024-02-23T10:01:33;23.10;;;20.47;;
2674;SDS011;1347;42.122;24.746;2024-02-23T10:04:01;20.20;;;18.20;;
2674;SDS011;1347;42.122;24.746;2024-02-23T10:06:29;20.27;;;18.27;;
2674;SDS011;1347;42.122;24.746;2024-02-23T10:08:57;20.33;;;18.33;;
2674;SDS011;1347;42.122;24.746;2024-02-23T10:11:24;19.97;;;17.80;;
2674;SDS011;1347;42.122;24.746;2024-02-23T10:13:51;22.03;;;17.23;;
2674;SDS011;1347;42.122;24.746;2024-02-23T10:16:18;20.93;;;18.63;;
2674;SDS011;1347;42.122;24.746;2024-02-23T10:18:47;18.77;;;16.87;;
2674;SDS011;1347;42.122;24.746;2024-02-23T10:21:15;20.93;;;18.10;;
2674;SDS011;1347;42.122;24.746;2024-02-23T10:23:42;21.77;;;17.20;;
2674;SDS011;1347;42.122;24.746;2024-02-23T10:26:10;24.40;;;19.70;;
2674;SDS011;1347;42.122;24.746;2024-02-23T10:28:37;22.90;;;18.50;;
2674;SDS011;1347;42.122;24.746;2024-02-23T10:31:05;26.00;;;20.00;;
2674;SDS011;1347;42.122;24.746;2024-02-23T10:33:32;21.23;;;18.97;;
2674;SDS011;1347;42.122;24.746;2024-02-23T10:36:02;20.47;;;18.40;;
2674;SDS011;1347;42.122;24.746;2024-02-23T10:38:33;23.70;;;18.40;;
2674;SDS011;1347;42.122;24.746;2024-02-23T10:41:04;23.47;;;17.80;;
2674;SDS011;1347;42.122;24.746;2024-02-23T10:43:33;18.90;;;16.90;;
2674;SDS011;1347;42.122;24.746;2024-02-23T10:46:07;22.00;;;18.23;;
2674;SDS011;1347;42.122;24.746;2024-02-23T10:48:38;19.73;;;17.23;;
2674;SDS011;1347;42.122;24.746;2024-02-23T10:51:08;17.83;;;16.00;;
2674;SDS011;1347;42.122;24.746;2024-02-23T10:53:39;15.93;;;14.47;;
2674;SDS011;1347;42.122;24.746;2024-02-23T10:56:06;16.93;;;15.23;;
2674;SDS011;1347;42.122;24.746;2024-02-23T10:58:34;19.33;;;17.33;;
2674;SDS011;1347;42.122;24.746;2024-02-23T11:01:01;18.03;;;16.33;;
2674;SDS011;1347;42.122;24.746;2024-02-23T11:03:30;20.60;;;16.83;;
2674;SDS011;1347;42.122;24.746;2024-02-23T11:05:59;18.90;;;17.00;;
2674;SDS011;1347;42.122;24.746;2024-02-23T11:08:28;20.57;;;18.67;;
2674;SDS011;1347;42.122;24.746;2024-02-23T11:10:57;24.27;;;21.60;;
2674;SDS011;1347;42.122;24.746;2024-02-23T11:13:34;21.57;;;19.27;;
2674;SDS011;1347;42.122;24.746;2024-02-23T11:16:01;26.07;;;23.27;;
2674;SDS011;1347;42.122;24.746;2024-02-23T11:18:31;23.73;;;21.10;;
2674;SDS011;1347;42.122;24.746;2024-02-23T11:21:02;25.57;;;21.50;;
2674;SDS011;1347;42.122;24.746;2024-02-23T11:23:40;23.63;;;20.23;;
2674;SDS011;1347;42.122;24.746;2024-02-23T11:26:09;25.07;;;22.40;;
2674;SDS011;1347;42.122;24.746;2024-02-23T11:28:42;23.50;;;21.00;;
2674;SDS011;1347;42.122;24.746;2024-02-23T11:31:11;23.33;;;17.93;;
2674;SDS011;1347;42.122;24.746;2024-02-23T11:33:39;21.63;;;16.43;;
2674;SDS011;1347;42.122;24.746;2024-02-23T11:36:06;25.17;;;19.67;;
2674;SDS011;1347;42.122;24.746;2024-02-23T11:38:33;20.73;;;18.17;;
2674;SDS011;1347;42.122;24.746;2024-02-23T11:41:02;19.37;;;17.47;;
2674;SDS011;1347;42.122;24.746;2024-02-23T11:43:29;17.37;;;15.60;;
2674;SDS011;1347;42.122;24.746;2024-02-23T11:45:56;19.00;;;17.10;;
2674;SDS011;1347;42.122;24.746;2024-02-23T11:48:26;21.60;;;17.77;;
2674;SDS011;1347;42.122;24.746;2024-02-23T11:50:53;22.23;;;17.20;;
2674;SDS011;1347;42.122;24.746;2024-02-23T11:53:20;19.40;;;17.40;;
2674;SDS011;1347;42.122;24.746;2024-02-23T11:55:47;17.57;;;15.73;;
2674;SDS011;1347;42.122;24.746;2024-02-23T11:58:16;18.70;;;16.07;;
2674;SDS011;1347;42.122;24.746;2024-02-23T12:00:44;22.07;;;17.30;;
2674;SDS011;1347;42.122;24.746;2024-02-23T12:03:12;19.23;;;16.90;;
2674;SDS011;1347;42.122;24.746;2024-02-23T12:05:39;19.10;;;17.20;;
2674;SDS011;1347;42.122;24.746;2024-02-23T12:08:06;17.17;;;15.37;;
2674;SDS011;1347;42.122;24.746;2024-02-23T12:10:33;16.90;;;15.17;;
2674;SDS011;1347;42.122;24.746;2024-02-23T12:13:01;14.83;;;13.40;;
2674;SDS011;1347;42.122;24.746;2024-02-23T12:15:30;15.97;;;13.93;;
2674;SDS011;1347;42.122;24.746;2024-02-23T12:17:57;16.00;;;14.40;;
2674;SDS011;1347;42.122;24.746;2024-02-23T12:20:25;16.23;;;13.37;;
2674;SDS011;1347;42.122;24.746;2024-02-23T12:22:54;15.43;;;13.93;;
2674;SDS011;1347;42.122;24.746;2024-02-23T12:25:22;16.23;;;14.30;;
2674;SDS011;1347;42.122;24.746;2024-02-23T12:27:53;15.90;;;14.30;;
2674;SDS011;1347;42.122;24.746;2024-02-23T12:30:21;17.70;;;15.90;;
2674;SDS011;1347;42.122;24.746;2024-02-23T12:32:49;16.97;;;15.17;;
2674;SDS011;1347;42.122;24.746;2024-02-23T12:35:16;16.17;;;14.57;;
2674;SDS011;1347;42.122;24.746;2024-02-23T12:37:46;15.43;;;13.80;;
2674;SDS011;1347;42.122;24.746;2024-02-23T12:40:14;17.07;;;13.57;;
2674;SDS011;1347;42.122;24.746;2024-02-23T12:42:41;17.47;;;14.73;;
2674;SDS011;1347;42.122;24.746;2024-02-23T12:45:09;16.63;;;15.00;;
2674;SDS011;1347;42.122;24.746;2024-02-23T12:47:36;17.40;;;15.60;;
2674;SDS011;1347;42.122;24.746;2024-02-23T12:50:06;17.23;;;15.43;;
2674;SDS011;1347;42.122;24.746;2024-02-23T12:52:35;18.07;;;16.37;;
2674;SDS011;1347;42.122;24.746;2024-02-23T12:55:02;18.63;;;16.10;;
2674;SDS011;1347;42.122;24.746;2024-02-23T12:57:29;17.30;;;15.53;;
2674;SDS011;1347;42.122;24.746;2024-02-23T12:59:56;14.83;;;12.43;;
2674;SDS011;1347;42.122;24.746;2024-02-23T13:02:23;18.57;;;13.77;;
2674;SDS011;1347;42.122;24.746;2024-02-23T13:04:50;17.77;;;14.40;;
2674;SDS011;1347;42.122;24.746;2024-02-23T13:07:19;19.10;;;13.97;;
2674;SDS011;1347;42.122;24.746;2024-02-23T13:09:46;14.70;;;13.30;;
2674;SDS011;1347;42.122;24.746;2024-02-23T13:12:13;14.80;;;13.07;;
2674;SDS011;1347;42.122;24.746;2024-02-23T13:14:40;17.00;;;14.57;;
2674;SDS011;1347;42.122;24.746;2024-02-23T13:17:07;15.60;;;14.03;;
2674;SDS011;1347;42.122;24.746;2024-02-23T13:19:35;14.33;;;12.90;;
2674;SDS011;1347;42.122;24.746;2024-02-23T13:22:02;16.50;;;14.10;;
2674;SDS011;1347;42.122;24.746;2024-02-23T13:24:31;15.40;;;13.23;;
2674;SDS011;1347;42.122;24.746;2024-02-23T13:26:57;14.97;;;12.70;;
2674;SDS011;1347;42.122;24.746;2024-02-23T13:29:24;14.83;;;13.13;;
2674;SDS011;1347;42.122;24.746;2024-02-23T13:31:52;15.27;;;13.77;;
2674;SDS011;1347;42.122;24.746;2024-02-23T13:34:19;16.20;;;12.90;;
2674;SDS011;1347;42.122;24.746;2024-02-23T13:36:46;13.13;;;11.80;;
2674;SDS011;1347;42.122;24.746;2024-02-23T13:39:15;12.17;;;10.97;;
2674;SDS011;1347;42.122;24.746;2024-02-23T13:41:43;13.40;;;10.97;;
2674;SDS011;1347;42.122;24.746;2024-02-23T13:44:10;10.47;;;9.40;;
2674;SDS011;1347;42.122;24.746;2024-02-23T13:46:37;13.80;;;11.40;;
2674;SDS011;1347;42.122;24.746;2024-02-23T13:49:05;12.93;;;11.63;;
2674;SDS011;1347;42.122;24.746;2024-02-23T13:51:34;11.10;;;10.00;;
2674;SDS011;1347;42.122;24.746;2024-02-23T13:54:01;12.00;;;10.80;;
2674;SDS011;1347;42.122;24.746;2024-02-23T13:56:29;15.77;;;11.37;;
2674;SDS011;1347;42.122;24.746;2024-02-23T13:58:57;15.87;;;11.80;;
2674;SDS011;1347;42.122;24.746;2024-02-23T14:01:24;12.40;;;10.30;;
2674;SDS011;1347;42.122;24.746;2024-02-23T14:03:51;11.80;;;10.60;;
2674;SDS011;1347;42.122;24.746;2024-02-23T14:06:18;13.67;;;11.53;;
2674;SDS011;1347;42.122;24.746;2024-02-23T14:08:45;13.60;;;11.43;;
2674;SDS011;1347;42.122;24.746;2024-02-23T14:11:13;13.50;;;11.50;;
2674;SDS011;1347;42.122;24.746;2024-02-23T14:13:40;13.57;;;12.27;;
2674;SDS011;1347;42.122;24.746;2024-02-23T14:16:11;14.77;;;12.27;;
2674;SDS011;1347;42.122;24.746;2024-02-23T14:18:41;12.80;;;11.50;;
2674;SDS011;1347;42.122;24.746;2024-02-23T14:21:09;14.80;;;12.70;;
2674;SDS011;1347;42.122;24.746;2024-02-23T14:23:40;12.87;;;11.57;;
2674;SDS011;1347;42.122;24.746;2024-02-23T14:26:06;13.73;;;11.50;;
2674;SDS011;1347;42.122;24.746;2024-02-23T14:28:33;14.27;;;12.63;;
2674;SDS011;1347;42.122;24.746;2024-02-23T14:31:00;12.80;;;11.50;;
2674;SDS011;1347;42.122;24.746;2024-02-23T14:33:29;13.90;;;12.50;;
2674;SDS011;1347;42.122;24.746;2024-02-23T14:35:55;12.97;;;11.67;;